Time;durP1;ratioP1;P1;durP2;ratioP2;P2;SDS_P1;SDS_P2;PMS_P1;PMS_P2;Temp;Humidity;BMP_temperature;BMP_pressure;BME280_temperature;BME280_humidity;BME280_pressure;Samples;Min_cycle;Max_cycle;Signal;HPM_P1;HPM_P2
2022/07/13 03:02:31;;;;;;;0.70;0.50;;;20.40;66.80;;;;;;5186192;23;21040;-76
2022/07/13 03:04:58;;;;;;;0.70;0.60;;;20.40;66.90;;;;;;4956900;29;20451;-75
2022/07/13 03:07:25;;;;;;;0.70;0.60;;;20.30;67.00;;;;;;4956836;29;20486;-76
2022/07/13 03:09:52;;;;;;;0.70;0.50;;;20.30;67.00;;;;;;4956772;29;20499;-76
2022/07/13 03:12:18;;;;;;;0.90;0.60;;;20.30;67.00;;;;;;4956695;29;20553;-76
2022/07/13 03:14:45;;;;;;;0.70;0.60;;;20.40;66.90;;;;;;4958079;29;20455;-76
2022/07/13 03:17:12;;;;;;;0.70;0.50;;;20.40;66.70;;;;;;4956641;29;20517;-76
2022/07/13 03:19:40;;;;;;;0.70;0.60;;;20.40;66.70;;;;;;4956324;29;21005;-76
2022/07/13 03:22:06;;;;;;;0.70;0.60;;;20.40;66.80;;;;;;4956519;29;20529;-76
2022/07/13 03:24:33;;;;;;;0.70;0.60;;;20.30;67.00;;;;;;4956517;29;20447;-75
2022/07/13 03:27:00;;;;;;;0.70;0.60;;;20.10;67.30;;;;;;4956500;29;20485;-76
2022/07/13 03:29:27;;;;;;;0.67;0.50;;;20.10;67.30;;;;;;4956342;29;20491;-76
2022/07/13 03:31:53;;;;;;;0.70;0.50;;;20.10;67.30;;;;;;4956315;29;20466;-75
2022/07/13 03:34:20;;;;;;;0.70;0.60;;;20.10;67.30;;;;;;4956029;29;20942;-73
2022/07/13 03:36:48;;;;;;;0.70;0.50;;;20.00;67.30;;;;;;4956273;29;20462;-73
2022/07/13 03:39:15;;;;;;;0.70;0.60;;;20.00;67.50;;;;;;4956213;29;20497;-73
2022/07/13 03:41:42;;;;;;;1.03;0.80;;;19.90;67.50;;;;;;4956133;29;20482;-73
2022/07/13 03:44:08;;;;;;;0.70;0.60;;;19.90;67.50;;;;;;4956175;29;20446;-73
2022/07/13 03:46:35;;;;;;;0.70;0.60;;;19.90;67.60;;;;;;4956050;29;20568;-73
2022/07/13 03:49:01;;;;;;;0.70;0.60;;;19.90;67.70;;;;;;4955997;29;20533;-73
2022/07/13 03:51:28;;;;;;;0.70;0.60;;;19.80;68.00;;;;;;4955990;29;20467;-73
2022/07/13 03:53:56;;;;;;;0.70;0.53;;;19.90;67.70;;;;;;4956006;29;20450;-73
2022/07/13 03:56:23;;;;;;;0.70;0.57;;;19.90;67.80;;;;;;4955985;29;20446;-73
2022/07/13 03:58:49;;;;;;;0.70;0.70;;;19.90;67.80;;;;;;4956012;28;20506;-76
2022/07/13 04:01:18;;;;;;;0.70;0.50;;;19.90;67.80;;;;;;4955683;29;20479;-76
2022/07/13 04:03:45;;;;;;;0.70;0.60;;;19.90;67.70;;;;;;4955863;29;20447;-76
2022/07/13 04:06:11;;;;;;;0.70;0.60;;;19.90;67.50;;;;;;4955821;29;20455;-76
2022/07/13 04:08:38;;;;;;;0.70;0.50;;;19.90;67.70;;;;;;4955677;29;20482;-73
2022/07/13 04:11:06;;;;;;;0.90;0.60;;;20.00;67.70;;;;;;4955355;29;20474;-73
2022/07/13 04:13:32;;;;;;;0.70;0.60;;;20.00;67.60;;;;;;4955236;28;20455;-73
2022/07/13 04:15:59;;;;;;;0.90;0.60;;;20.00;67.70;;;;;;4955630;29;20454;-74
2022/07/13 04:18:26;;;;;;;0.70;0.57;;;20.10;67.80;;;;;;4955593;29;20458;-74
2022/07/13 04:20:52;;;;;;;0.70;0.50;;;20.10;67.70;;;;;;4955517;29;20475;-74
2022/07/13 04:23:19;;;;;;;0.70;0.60;;;20.10;67.80;;;;;;4955524;29;20522;-74
2022/07/13 04:25:46;;;;;;;0.80;0.57;;;20.10;68.00;;;;;;4955543;29;20861;-74
2022/07/13 04:28:14;;;;;;;0.70;0.50;;;20.10;68.40;;;;;;4955399;29;20483;-74
2022/07/13 04:30:40;;;;;;;0.60;0.50;;;20.20;68.30;;;;;;4955382;29;20447;-74
2022/07/13 04:33:07;;;;;;;0.70;0.60;;;20.20;68.20;;;;;;4955489;29;20517;-74
2022/07/13 04:35:34;;;;;;;0.63;0.60;;;20.30;68.10;;;;;;4955414;29;20455;-74
2022/07/13 04:38:00;;;;;;;0.83;0.70;;;20.40;67.80;;;;;;4955389;29;20446;-74
2022/07/13 04:40:27;;;;;;;0.70;0.70;;;20.40;67.70;;;;;;4955268;29;20534;-74
2022/07/13 04:42:54;;;;;;;0.80;0.80;;;20.50;67.70;;;;;;4955035;29;20506;-73
2022/07/13 04:45:22;;;;;;;0.70;0.60;;;20.20;68.40;;;;;;4955350;29;20858;-74
2022/07/13 04:47:49;;;;;;;0.70;0.50;;;19.90;69.60;;;;;;4955245;29;20796;-73
2022/07/13 04:50:16;;;;;;;0.70;0.50;;;19.70;70.30;;;;;;4955301;29;20478;-74
2022/07/13 04:52:43;;;;;;;0.70;0.60;;;19.70;70.20;;;;;;4955214;29;20471;-74
2022/07/13 04:55:10;;;;;;;0.70;0.60;;;19.90;70.10;;;;;;4955347;29;20793;-74
2022/07/13 04:57:37;;;;;;;0.80;0.60;;;20.20;69.20;;;;;;4954965;29;20514;-74
2022/07/13 05:00:05;;;;;;;0.70;0.50;;;20.30;68.70;;;;;;4954908;29;20946;-74
2022/07/13 05:02:33;;;;;;;0.70;0.60;;;20.50;68.50;;;;;;4954897;29;20491;-73
2022/07/13 05:05:00;;;;;;;0.70;0.50;;;20.60;68.20;;;;;;4955143;29;20451;-74
2022/07/13 05:07:28;;;;;;;0.70;0.70;;;20.60;68.10;;;;;;4954882;29;20953;-74
2022/07/13 05:09:55;;;;;;;0.90;0.90;;;20.70;67.90;;;;;;4955055;29;20490;-73
2022/07/13 05:12:22;;;;;;;0.87;0.87;;;20.80;67.80;;;;;;4955038;29;20467;-74
2022/07/13 05:14:49;;;;;;;0.73;0.73;;;20.90;67.50;;;;;;4954774;29;20950;-74
2022/07/13 05:17:17;;;;;;;1.20;0.80;;;21.00;67.60;;;;;;4955061;29;20474;-74
2022/07/13 05:19:44;;;;;;;0.70;0.60;;;21.10;67.40;;;;;;4954719;29;21015;-74
2022/07/13 05:22:11;;;;;;;0.70;0.60;;;21.10;67.70;;;;;;4954645;29;21037;-74
2022/07/13 05:24:43;;;;;;;0.80;0.60;;;21.10;68.40;;;;;;4955497;28;20450;-74
2022/07/13 05:27:10;;;;;;;0.70;0.60;;;21.20;68.20;;;;;;4958720;29;20439;-74
2022/07/13 05:29:37;;;;;;;0.80;0.70;;;21.30;67.70;;;;;;4958497;29;20486;-74
2022/07/13 05:32:04;;;;;;;0.70;0.60;;;21.50;67.40;;;;;;4958435;29;20470;-74
2022/07/13 05:34:31;;;;;;;0.80;0.60;;;21.70;67.50;;;;;;4958232;29;20853;-74
2022/07/13 05:36:59;;;;;;;0.90;0.67;;;21.70;67.70;;;;;;4958178;29;21016;-73
2022/07/13 05:39:26;;;;;;;0.80;0.53;;;21.70;67.20;;;;;;4958127;29;20447;-73
2022/07/13 05:41:52;;;;;;;0.70;0.53;;;21.60;67.90;;;;;;4958291;29;20521;-73
2022/07/13 05:44:19;;;;;;;0.70;0.60;;;21.60;67.70;;;;;;4958365;29;20446;-73
2022/07/13 05:46:46;;;;;;;0.70;0.60;;;21.40;67.60;;;;;;4958299;29;20483;-73
2022/07/13 05:49:12;;;;;;;0.70;0.53;;;21.10;68.40;;;;;;4958142;29;20855;-73
2022/07/13 05:51:39;;;;;;;0.70;0.60;;;21.00;69.30;;;;;;4958057;29;20474;-74
2022/07/13 05:54:07;;;;;;;0.70;0.60;;;21.00;69.00;;;;;;4958120;29;20450;-73
2022/07/13 05:56:34;;;;;;;0.70;0.50;;;20.90;69.00;;;;;;4958133;29;20447;-74
2022/07/13 05:59:01;;;;;;;0.70;0.60;;;21.10;68.60;;;;;;4957822;29;21026;-74
2022/07/13 06:01:27;;;;;;;0.70;0.50;;;21.50;67.20;;;;;;4958016;29;20496;-74
2022/07/13 06:03:54;;;;;;;0.80;0.53;;;21.80;66.80;;;;;;4957673;29;20892;-74
2022/07/13 06:06:21;;;;;;;0.70;0.50;;;21.80;65.40;;;;;;4957905;29;20490;-73
2022/07/13 06:08:47;;;;;;;0.67;0.50;;;21.70;64.10;;;;;;4957774;29;20482;-74
2022/07/13 06:11:15;;;;;;;0.70;0.50;;;21.90;64.30;;;;;;4957775;29;20471;-74
2022/07/13 06:13:42;;;;;;;0.60;0.50;;;22.30;62.80;;;;;;4957819;29;20525;-74
2022/07/13 06:16:09;;;;;;;0.70;0.60;;;22.50;62.20;;;;;;4957396;29;20872;-74
2022/07/13 06:18:35;;;;;;;0.70;0.50;;;22.90;62.00;;;;;;4957660;29;20451;-75
2022/07/13 06:21:02;;;;;;;0.70;0.50;;;22.90;61.60;;;;;;4957508;29;20470;-74
2022/07/13 06:23:29;;;;;;;0.60;0.50;;;22.90;61.90;;;;;;4957594;29;20447;-74
2022/07/13 06:25:55;;;;;;;0.60;0.50;;;23.00;62.60;;;;;;4957564;29;20506;-74
2022/07/13 06:28:23;;;;;;;0.60;0.50;;;22.80;61.90;;;;;;4957420;29;20450;-74
2022/07/13 06:30:50;;;;;;;0.70;0.60;;;23.00;62.10;;;;;;4957114;29;20897;-74
2022/07/13 06:33:16;;;;;;;0.60;0.50;;;23.00;62.00;;;;;;4957420;29;20450;-74
2022/07/13 06:35:43;;;;;;;0.60;0.50;;;23.10;60.80;;;;;;4957054;28;20447;-74
2022/07/13 06:38:10;;;;;;;0.60;0.50;;;23.20;61.00;;;;;;4957311;29;20529;-74
2022/07/13 06:40:37;;;;;;;0.60;0.50;;;23.20;60.90;;;;;;4957268;29;20510;-74
2022/07/13 06:43:03;;;;;;;0.70;0.70;;;23.20;62.10;;;;;;4956964;29;20458;-74
2022/07/13 06:45:31;;;;;;;0.90;0.60;;;23.40;61.50;;;;;;4957254;29;20446;-74
2022/07/13 06:47:58;;;;;;;0.70;0.50;;;23.20;61.40;;;;;;4957310;29;20509;-74
2022/07/13 06:50:25;;;;;;;0.70;0.60;;;23.10;61.30;;;;;;4956716;29;20486;-74
2022/07/13 06:52:51;;;;;;;0.70;0.50;;;23.40;61.60;;;;;;4957120;29;20451;-74
2022/07/13 06:55:18;;;;;;;0.70;0.60;;;23.60;61.30;;;;;;4957059;29;20451;-74
2022/07/13 06:57:45;;;;;;;0.70;0.50;;;23.80;61.00;;;;;;4957056;29;20505;-75
2022/07/13 07:00:13;;;;;;;0.60;0.50;;;23.70;60.30;;;;;;4956972;29;20442;-75
2022/07/13 07:02:41;;;;;;;0.70;0.50;;;23.80;61.00;;;;;;4956551;29;20487;-75
2022/07/13 07:05:10;;;;;;;0.70;0.50;;;24.10;59.40;;;;;;4956884;29;20446;-75
2022/07/13 07:07:37;;;;;;;0.60;0.50;;;24.10;56.80;;;;;;4956776;29;20830;-75
2022/07/13 07:10:05;;;;;;;0.60;0.50;;;24.00;57.40;;;;;;4956737;29;20483;-75
2022/07/13 07:12:31;;;;;;;0.60;0.50;;;24.00;58.00;;;;;;4956746;28;20466;-75
2022/07/13 07:14:58;;;;;;;0.80;0.50;;;24.40;57.90;;;;;;4956697;29;20455;-75
2022/07/13 07:17:25;;;;;;;0.70;0.50;;;24.80;57.70;;;;;;4956648;29;20459;-75
2022/07/13 07:19:57;;;;;;;0.70;0.50;;;25.00;57.40;;;;;;4956344;29;21004;-75
2022/07/13 07:22:24;;;;;;;0.60;0.50;;;25.10;56.60;;;;;;4956503;29;20561;-75
2022/07/13 07:24:50;;;;;;;0.70;0.50;;;25.60;55.00;;;;;;4956512;29;20501;-75
2022/07/13 07:27:17;;;;;;;0.70;0.60;;;26.10;57.80;;;;;;4956460;29;20943;-75
2022/07/13 07:29:44;;;;;;;0.70;0.50;;;26.40;52.50;;;;;;4956084;29;20897;-75
2022/07/13 07:32:11;;;;;;;0.60;0.50;;;26.40;54.20;;;;;;4956369;28;20524;-75
2022/07/13 07:34:37;;;;;;;0.70;0.60;;;26.40;53.50;;;;;;4956360;29;20505;-75
2022/07/13 07:37:05;;;;;;;0.70;0.50;;;26.60;52.10;;;;;;4956302;29;20451;-75
2022/07/13 07:39:32;;;;;;;0.80;0.50;;;26.50;52.00;;;;;;4956249;29;20455;-75
2022/07/13 07:41:58;;;;;;;0.90;0.50;;;26.30;52.90;;;;;;4956165;29;20475;-74
2022/07/13 07:44:25;;;;;;;0.60;0.50;;;26.10;53.30;;;;;;4956209;29;20506;-74
2022/07/13 07:46:52;;;;;;;0.70;0.50;;;26.20;55.30;;;;;;4955803;28;20525;-75
2022/07/13 07:49:18;;;;;;;1.07;0.50;;;26.70;53.90;;;;;;4955314;29;21069;-74
2022/07/13 07:51:45;;;;;;;0.70;0.50;;;26.70;52.00;;;;;;4955673;29;20987;-75
2022/07/13 07:54:13;;;;;;;0.70;0.50;;;26.80;52.40;;;;;;4955970;29;20446;-76
2022/07/13 07:56:40;;;;;;;0.70;0.60;;;26.80;52.40;;;;;;4956191;29;20446;-75
2022/07/13 07:59:06;;;;;;;0.60;0.50;;;26.30;51.10;;;;;;4955880;29;20501;-75
2022/07/13 08:01:33;;;;;;;0.60;0.50;;;26.30;52.50;;;;;;4955378;29;20537;-75
2022/07/13 08:03:59;;;;;;;0.70;0.50;;;26.40;53.30;;;;;;4955852;29;20506;-75
2022/07/13 08:06:26;;;;;;;0.60;0.50;;;26.40;52.40;;;;;;4955800;29;20443;-75
2022/07/13 08:08:53;;;;;;;0.70;0.60;;;26.80;50.50;;;;;;4955737;28;20546;-75
2022/07/13 08:11:21;;;;;;;0.70;0.50;;;27.10;50.60;;;;;;4955656;29;20474;-75
2022/07/13 08:13:49;;;;;;;0.70;0.50;;;27.10;49.20;;;;;;4955638;29;20560;-75
2022/07/13 08:16:16;;;;;;;0.60;0.50;;;27.30;49.50;;;;;;4955376;29;20942;-75
2022/07/13 08:18:43;;;;;;;0.80;0.50;;;27.20;49.20;;;;;;4955654;28;20526;-75
2022/07/13 08:21:10;;;;;;;0.70;0.50;;;27.20;49.10;;;;;;4955534;29;20474;-75
2022/07/13 08:23:52;;;;;;;0.70;0.60;;;27.10;49.80;;;;;;4955548;29;20454;-75
2022/07/13 08:26:21;;;;;;;0.70;0.50;;;26.90;50.70;;;;;;4955601;29;20435;-75
2022/07/13 08:28:48;;;;;;;0.70;0.50;;;26.80;50.70;;;;;;4955120;29;20875;-75
2022/07/13 08:31:15;;;;;;;0.73;0.53;;;26.60;51.20;;;;;;4955096;29;20982;-75
2022/07/13 08:39:11;;;;;;;0.70;0.50;;;26.80;50.80;;;;;;4955224;29;20898;-75
2022/07/13 08:41:39;;;;;;;1.00;0.50;;;26.90;49.70;;;;;;4955349;29;20557;-75
2022/07/13 08:44:06;;;;;;;0.70;0.50;;;27.10;50.60;;;;;;4955358;29;20451;-75
2022/07/13 08:46:33;;;;;;;0.70;0.50;;;27.20;49.50;;;;;;4955378;29;20459;-75
2022/07/13 08:49:01;;;;;;;0.60;0.50;;;27.20;50.40;;;;;;4954896;29;20502;-75
2022/07/13 08:51:30;;;;;;;0.80;0.57;;;27.10;51.00;;;;;;4955213;29;20458;-74
2022/07/13 08:53:57;;;;;;;0.60;0.50;;;26.90;50.50;;;;;;4955418;29;20447;-75
2022/07/13 08:56:24;;;;;;;0.63;0.50;;;26.80;50.60;;;;;;4955184;29;20443;-75
2022/07/13 08:58:52;;;;;;;0.60;0.50;;;27.00;51.70;;;;;;4956151;28;20501;-75
2022/07/13 09:01:19;;;;;;;0.60;0.50;;;27.30;50.40;;;;;;4959024;28;20498;-74
2022/07/13 09:03:46;;;;;;;0.70;0.50;;;27.00;49.40;;;;;;4959303;29;20457;-74
2022/07/13 09:06:44;;;;;;;0.60;0.50;;;27.00;50.40;;;;;;4959037;29;20468;-75
2022/07/13 09:09:27;;;;;;;0.80;0.60;;;27.20;49.30;;;;;;4958957;28;20515;-74
2022/07/13 09:12:13;;;;;;;0.80;0.60;;;27.50;49.50;;;;;;4956787;28;20566;-75
2022/07/13 09:14:41;;;;;;;0.70;0.60;;;27.90;48.30;;;;;;4960244;29;20447;-75
2022/07/13 09:17:07;;;;;;;0.70;0.50;;;27.90;47.90;;;;;;4958926;28;20501;-75
2022/07/13 09:19:36;;;;;;;0.70;0.50;;;28.10;48.50;;;;;;4958884;29;20442;-75
2022/07/13 09:22:11;;;;;;;0.67;0.50;;;28.10;46.90;;;;;;4958729;29;20525;-74
2022/07/13 09:24:43;;;;;;;0.60;0.50;;;27.80;46.60;;;;;;4958731;29;20450;-75
2022/07/13 09:27:10;;;;;;;0.60;0.50;;;27.90;47.10;;;;;;4958761;28;20474;-75
2022/07/13 09:29:37;;;;;;;0.60;0.50;;;27.80;47.20;;;;;;4958537;29;21094;-75
2022/07/13 09:32:08;;;;;;;0.60;0.50;;;28.10;48.40;;;;;;4958143;29;20855;-75
2022/07/13 09:34:50;;;;;;;0.70;0.50;;;28.20;45.90;;;;;;4958626;29;20475;-75
2022/07/13 09:37:18;;;;;;;0.70;0.60;;;28.30;45.20;;;;;;4958572;28;20799;-74
2022/07/13 09:40:00;;;;;;;0.60;0.50;;;28.30;45.40;;;;;;4958499;28;21009;-74
2022/07/13 09:42:28;;;;;;;0.67;0.50;;;28.30;42.40;;;;;;4958373;29;20549;-74
2022/07/13 09:47:48;;;;;;;0.70;0.50;;;28.60;40.90;;;;;;4958388;29;20890;-74
2022/07/13 09:50:17;;;;;;;0.60;0.50;;;28.70;42.30;;;;;;4958794;29;20470;-75
2022/07/13 09:52:44;;;;;;;0.70;0.50;;;29.00;42.80;;;;;;4958180;28;20479;-75
2022/07/13 09:55:12;;;;;;;0.70;0.50;;;29.20;43.60;;;;;;4957813;29;20935;-75
2022/07/13 09:57:46;;;;;;;0.70;0.50;;;29.40;36.20;;;;;;4958145;29;20497;-75
2022/07/13 10:00:17;;;;;;;0.70;0.50;;;29.50;40.00;;;;;;4958123;29;20439;-75
2022/07/13 10:02:47;;;;;;;0.60;0.50;;;29.30;39.30;;;;;;4957848;29;20491;-75
2022/07/13 10:05:15;;;;;;;0.60;0.50;;;29.30;40.80;;;;;;4957969;29;20537;-75
2022/07/13 10:07:43;;;;;;;1.27;0.50;;;29.10;43.80;;;;;;4957662;28;21005;-74
2022/07/13 10:10:11;;;;;;;0.60;0.50;;;28.90;42.40;;;;;;4957218;28;20483;-75
2022/07/13 10:12:38;;;;;;;0.70;0.50;;;29.10;42.10;;;;;;4957699;29;20471;-74
2022/07/13 10:15:06;;;;;;;0.70;0.50;;;29.50;42.50;;;;;;4957945;29;20477;-75
2022/07/13 10:17:34;;;;;;;0.60;0.50;;;29.40;40.20;;;;;;4957475;28;20873;-75
2022/07/13 10:20:06;;;;;;;0.60;0.50;;;29.60;39.40;;;;;;4958496;29;20459;-75
2022/07/13 10:22:38;;;;;;;0.87;0.50;;;29.50;39.60;;;;;;4957337;29;21058;-75
2022/07/13 10:25:06;;;;;;;0.60;0.50;;;29.70;39.60;;;;;;4957650;29;20853;-75
2022/07/13 10:27:34;;;;;;;0.70;0.50;;;30.00;37.90;;;;;;4957700;28;20498;-75
2022/07/13 10:30:03;;;;;;;0.90;0.50;;;30.30;38.30;;;;;;4957539;29;20479;-75
2022/07/13 10:32:31;;;;;;;0.60;0.50;;;30.70;38.40;;;;;;4957473;29;20477;-75
2022/07/13 10:35:00;;;;;;;0.67;0.50;;;31.10;37.30;;;;;;4957476;29;20454;-75
2022/07/13 10:37:28;;;;;;;0.60;0.50;;;31.00;36.80;;;;;;4957419;29;20506;-75
2022/07/13 10:40:13;;;;;;;0.63;0.50;;;31.10;37.00;;;;;;4957346;29;20443;-75
2022/07/13 10:43:12;;;;;;;0.60;0.50;;;31.20;36.60;;;;;;4956990;29;20990;-75
2022/07/13 10:45:41;;;;;;;0.60;0.50;;;30.60;36.20;;;;;;4958307;29;20458;-75
2022/07/13 10:48:11;;;;;;;0.60;0.50;;;30.60;37.40;;;;;;4957297;29;20546;-74
2022/07/13 10:50:46;;;;;;;0.60;0.50;;;30.60;38.50;;;;;;4957078;29;20483;-75
2022/07/13 10:53:15;;;;;;;0.60;0.50;;;30.70;37.50;;;;;;4957183;28;20439;-74
2022/07/13 10:55:49;;;;;;;0.60;0.50;;;31.00;37.20;;;;;;4957095;29;20510;-74
2022/07/13 10:58:42;;;;;;;0.80;0.60;;;30.80;36.20;;;;;;4957160;29;20427;-75
2022/07/13 11:01:35;;;;;;;0.60;0.50;;;30.90;36.90;;;;;;4956863;29;20489;-75
2022/07/13 11:04:03;;;;;;;0.70;0.50;;;30.70;36.90;;;;;;4956697;28;20546;-75
2022/07/13 11:06:29;;;;;;;0.60;0.50;;;30.70;38.40;;;;;;4956882;29;20468;-75
2022/07/13 11:09:15;;;;;;;0.60;0.50;;;30.80;36.30;;;;;;4956863;29;20545;-75
2022/07/13 11:11:46;;;;;;;0.60;0.50;;;30.90;35.70;;;;;;4956736;28;20490;-75
2022/07/13 11:14:48;;;;;;;0.60;0.50;;;31.00;37.50;;;;;;4956739;29;20861;-75
2022/07/13 11:17:15;;;;;;;0.70;0.50;;;31.00;36.90;;;;;;4956750;29;20488;-74
2022/07/13 11:19:56;;;;;;;0.70;0.50;;;30.90;36.70;;;;;;4956644;29;20447;-75
2022/07/13 11:22:25;;;;;;;0.80;0.60;;;31.00;36.90;;;;;;4955179;28;20478;-75
2022/07/13 11:25:14;;;;;;;0.60;0.50;;;31.10;39.70;;;;;;4956540;29;20447;-75
2022/07/13 11:27:55;;;;;;;0.70;0.60;;;31.30;37.20;;;;;;4956586;29;20462;-76
2022/07/13 11:30:29;;;;;;;0.60;0.50;;;31.30;37.10;;;;;;4956377;29;20475;-75
2022/07/13 11:32:56;;;;;;;0.70;0.60;;;31.70;35.90;;;;;;4956440;29;20438;-74
2022/07/13 11:35:23;;;;;;;0.60;0.50;;;31.80;36.30;;;;;;4956303;29;20446;-75
2022/07/13 11:37:50;;;;;;;0.70;0.50;;;31.70;35.80;;;;;;4956203;29;20451;-75
2022/07/13 11:40:32;;;;;;;0.60;0.50;;;31.60;35.70;;;;;;4956266;28;20447;-75
2022/07/13 11:43:00;;;;;;;0.60;0.50;;;32.00;36.50;;;;;;4956175;29;20539;-75
2022/07/13 11:45:29;;;;;;;0.70;0.50;;;32.30;36.00;;;;;;4955861;29;20490;-76
2022/07/13 11:47:58;;;;;;;0.60;0.50;;;32.40;34.80;;;;;;4956411;29;20455;-75
2022/07/13 11:50:38;;;;;;;1.00;0.50;;;32.60;34.10;;;;;;4955953;29;20648;-75
2022/07/13 11:53:05;;;;;;;0.80;0.50;;;32.30;34.50;;;;;;4955648;29;20903;-75
2022/07/13 11:55:34;;;;;;;0.60;0.50;;;32.60;34.00;;;;;;4955906;28;20502;-74
2022/07/13 11:58:01;;;;;;;2.33;0.50;;;32.50;33.40;;;;;;4955473;29;20459;-75
2022/07/13 12:00:28;;;;;;;0.70;0.50;;;32.40;33.50;;;;;;4955664;29;20443;-75
2022/07/13 12:02:56;;;;;;;0.93;0.50;;;32.40;34.30;;;;;;4955465;29;20458;-75
2022/07/13 12:05:23;;;;;;;0.60;0.50;;;32.30;34.10;;;;;;4955837;29;20538;-76
2022/07/13 12:08:01;;;;;;;0.60;0.50;;;32.60;35.40;;;;;;4955808;29;20502;-75
2022/07/13 12:10:28;;;;;;;0.70;0.60;;;33.00;33.90;;;;;;4955681;29;20477;-75
2022/07/13 12:12:56;;;;;;;0.60;0.50;;;33.30;35.60;;;;;;4955685;29;20482;-75
2022/07/13 12:15:24;;;;;;;0.60;0.50;;;33.40;32.70;;;;;;4955652;29;20506;-75
2022/07/13 12:17:50;;;;;;;0.60;0.50;;;33.10;32.10;;;;;;4955586;29;20454;-75
2022/07/13 12:20:19;;;;;;;0.60;0.50;;;33.00;33.60;;;;;;4955572;29;20459;-75
2022/07/13 12:22:50;;;;;;;0.60;0.50;;;32.90;32.80;;;;;;4955670;29;20522;-75
2022/07/13 12:25:26;;;;;;;0.80;0.50;;;32.90;32.70;;;;;;4955626;29;20454;-75
2022/07/13 12:27:54;;;;;;;0.70;0.50;;;32.60;32.40;;;;;;4956631;29;20455;-74
2022/07/13 12:30:22;;;;;;;0.60;0.50;;;32.60;32.40;;;;;;4955462;29;20510;-75
2022/07/13 12:32:56;;;;;;;0.60;0.50;;;32.50;32.40;;;;;;4955124;29;21005;-75
2022/07/13 12:35:24;;;;;;;0.60;0.50;;;32.80;32.80;;;;;;4954810;29;20453;-75
2022/07/13 12:37:51;;;;;;;0.70;0.50;;;32.90;33.40;;;;;;4955416;29;20455;-74
2022/07/13 12:40:37;;;;;;;0.60;0.50;;;33.00;35.20;;;;;;4955388;29;20898;-75
2022/07/13 12:43:03;;;;;;;0.60;0.60;;;33.20;34.10;;;;;;4955413;28;20513;-75
2022/07/13 12:45:31;;;;;;;0.70;0.53;;;33.30;31.60;;;;;;4955359;29;20446;-75
2022/07/13 12:47:58;;;;;;;0.70;0.60;;;33.20;32.90;;;;;;4955345;28;20497;-75
2022/07/13 12:50:29;;;;;;;1.43;0.60;;;33.10;34.00;;;;;;4955101;29;20545;-75
2022/07/13 12:53:00;;;;;;;0.60;0.50;;;33.10;33.70;;;;;;4955244;29;20493;-75
2022/07/13 12:55:27;;;;;;;0.70;0.50;;;33.60;33.60;;;;;;4955204;29;20498;-74
2022/07/13 12:57:54;;;;;;;0.60;0.50;;;33.80;32.40;;;;;;4955182;29;20510;-74
2022/07/13 13:00:26;;;;;;;0.60;0.50;;;34.00;32.00;;;;;;4955225;28;20506;-74
2022/07/13 13:02:54;;;;;;;0.60;0.50;;;33.60;32.20;;;;;;4954829;29;20463;-74
2022/07/13 13:05:21;;;;;;;0.60;0.50;;;33.40;32.30;;;;;;4955087;29;20501;-74
2022/07/13 13:07:48;;;;;;;0.60;0.50;;;33.20;33.50;;;;;;4955276;29;20498;-74
2022/07/13 13:10:15;;;;;;;0.63;0.53;;;33.30;33.60;;;;;;4954999;29;20451;-75
2022/07/13 13:12:41;;;;;;;0.60;0.50;;;33.40;32.40;;;;;;4954999;29;20478;-75
2022/07/13 13:15:09;;;;;;;0.60;0.50;;;33.20;30.40;;;;;;4955843;29;20450;-75
2022/07/13 13:17:35;;;;;;;0.60;0.50;;;33.00;33.80;;;;;;4954717;28;20942;-75
2022/07/13 13:20:05;;;;;;;0.70;0.50;;;33.10;32.60;;;;;;4954988;29;20506;-75
2022/07/13 13:22:32;;;;;;;0.60;0.50;;;33.10;33.50;;;;;;4954915;29;20474;-75
2022/07/13 13:24:58;;;;;;;0.60;0.60;;;33.10;32.60;;;;;;4954965;29;20514;-75
2022/07/13 13:27:25;;;;;;;0.60;0.50;;;32.90;32.50;;;;;;4954991;29;20458;-75
2022/07/13 13:32:36;;;;;;;0.60;0.50;;;32.90;31.70;;;;;;4954726;29;20561;-75
2022/07/13 13:35:04;;;;;;;0.67;0.50;;;33.00;30.70;;;;;;4954876;29;20458;-75
2022/07/13 13:37:31;;;;;;;0.60;0.50;;;33.00;31.10;;;;;;4954807;29;20451;-75
2022/07/13 13:39:58;;;;;;;0.70;0.50;;;32.90;31.30;;;;;;4954492;29;21005;-75
2022/07/13 13:42:24;;;;;;;0.60;0.50;;;33.30;30.10;;;;;;4954453;29;20462;-75
2022/07/13 13:44:51;;;;;;;0.60;0.50;;;33.50;29.40;;;;;;4954476;28;20946;-75
2022/07/13 13:47:18;;;;;;;0.60;0.50;;;33.70;29.20;;;;;;4957750;29;20450;-75
2022/07/13 13:49:44;;;;;;;0.60;0.50;;;33.80;30.20;;;;;;4958215;29;20450;-74
2022/07/13 13:52:12;;;;;;;0.60;0.50;;;34.00;29.40;;;;;;4958115;29;20550;-75
2022/07/13 13:54:39;;;;;;;0.60;0.50;;;33.80;32.00;;;;;;4958137;29;20447;-74
2022/07/13 13:57:06;;;;;;;0.63;0.50;;;33.60;30.50;;;;;;4958138;29;20513;-74
2022/07/13 13:59:32;;;;;;;0.60;0.50;;;33.80;30.20;;;;;;4958152;29;20454;-75
2022/07/13 14:01:59;;;;;;;1.37;0.60;;;33.40;30.00;;;;;;4957554;29;20998;-75
2022/07/13 14:04:25;;;;;;;0.60;0.50;;;33.30;29.50;;;;;;4958222;29;20447;-75
2022/07/13 14:06:52;;;;;;;0.60;0.50;;;33.50;32.20;;;;;;4957659;29;20939;-75
2022/07/13 14:09:20;;;;;;;0.60;0.50;;;33.70;31.30;;;;;;4957956;29;20473;-75
2022/07/13 14:11:47;;;;;;;0.60;0.50;;;33.60;28.60;;;;;;4957498;29;20892;-75
2022/07/13 14:14:13;;;;;;;0.63;0.50;;;33.80;30.20;;;;;;4957814;29;20481;-75
2022/07/13 14:16:40;;;;;;;0.60;0.50;;;33.60;29.70;;;;;;4957778;29;20451;-75
2022/07/13 14:19:08;;;;;;;0.60;0.50;;;33.30;30.70;;;;;;4957788;29;20501;-75
2022/07/13 14:21:35;;;;;;;0.60;0.50;;;33.10;33.10;;;;;;4957731;29;20501;-74
2022/07/13 14:24:02;;;;;;;0.60;0.50;;;32.80;33.80;;;;;;4957661;29;20454;-73
2022/07/13 14:26:31;;;;;;;0.70;0.57;;;32.50;33.70;;;;;;4957667;29;20506;-75
2022/07/13 14:28:57;;;;;;;0.70;0.57;;;32.20;35.00;;;;;;4957676;29;20537;-73
2022/07/13 14:31:24;;;;;;;0.90;0.60;;;32.00;35.00;;;;;;4957374;29;20897;-73
2022/07/13 14:33:51;;;;;;;0.60;0.50;;;32.00;34.70;;;;;;4957469;29;20494;-73
2022/07/13 14:36:23;;;;;;;0.60;0.50;;;31.80;34.60;;;;;;4957486;28;20545;-73
2022/07/13 14:38:49;;;;;;;0.60;0.50;;;31.80;34.60;;;;;;4957744;29;20789;-72
2022/07/13 14:41:16;;;;;;;0.60;0.50;;;31.70;35.10;;;;;;4956996;29;20974;-73
2022/07/13 14:43:44;;;;;;;0.63;0.50;;;31.60;35.10;;;;;;4957314;29;20451;-72
2022/07/13 14:46:11;;;;;;;0.60;0.50;;;31.60;34.70;;;;;;4957329;29;20450;-73
2022/07/13 14:48:38;;;;;;;0.60;0.50;;;31.80;36.10;;;;;;4957225;29;20454;-72
2022/07/13 14:51:05;;;;;;;0.70;0.50;;;31.90;34.70;;;;;;4957042;29;20546;-73
2022/07/13 14:53:32;;;;;;;0.73;0.60;;;32.10;35.50;;;;;;4956837;29;20947;-73
2022/07/13 14:55:58;;;;;;;0.60;0.50;;;32.30;34.20;;;;;;4957132;29;20820;-73
2022/07/13 14:58:25;;;;;;;0.63;0.50;;;32.00;34.10;;;;;;4956845;28;20528;-72
2022/07/13 15:00:53;;;;;;;0.60;0.50;;;32.20;33.80;;;;;;4956763;29;20827;-74
2022/07/13 15:03:20;;;;;;;0.60;0.50;;;32.00;32.90;;;;;;4957031;29;20435;-72
2022/07/13 15:05:46;;;;;;;0.60;0.50;;;32.00;34.00;;;;;;4956988;29;20458;-73
2022/07/13 15:08:13;;;;;;;0.70;0.50;;;32.00;33.30;;;;;;4956873;29;20514;-72
2022/07/13 15:10:40;;;;;;;0.60;0.50;;;31.80;34.80;;;;;;4956766;29;20455;-72
2022/07/13 15:13:07;;;;;;;1.23;0.50;;;31.80;34.40;;;;;;4957804;29;20545;-73
2022/07/13 15:15:33;;;;;;;0.60;0.50;;;31.80;35.20;;;;;;4956417;29;21017;-72
2022/07/13 15:18:03;;;;;;;0.60;0.50;;;31.60;34.10;;;;;;4956684;29;20480;-73
2022/07/13 15:20:29;;;;;;;0.60;0.50;;;31.50;34.40;;;;;;4956607;29;20450;-72
2022/07/13 15:22:56;;;;;;;0.70;0.50;;;31.40;34.90;;;;;;4956572;29;20493;-73
2022/07/13 15:25:23;;;;;;;0.60;0.50;;;31.40;35.40;;;;;;4956538;29;20447;-74
2022/07/13 15:27:49;;;;;;;0.60;0.50;;;31.30;35.80;;;;;;4956512;29;20507;-72
2022/07/13 15:30:16;;;;;;;0.70;0.50;;;31.50;36.30;;;;;;4956421;29;20451;-73
2022/07/13 15:32:43;;;;;;;0.60;0.50;;;31.50;35.80;;;;;;4956270;29;20533;-73
2022/07/13 15:35:11;;;;;;;0.60;0.50;;;31.60;35.50;;;;;;4956405;29;20454;-72
2022/07/13 15:37:37;;;;;;;0.60;0.50;;;31.60;36.10;;;;;;4956325;29;20529;-73
2022/07/13 15:40:05;;;;;;;0.60;0.50;;;31.70;38.20;;;;;;4956260;29;21013;-72
2022/07/13 15:42:32;;;;;;;0.60;0.50;;;31.60;36.70;;;;;;4956162;29;20518;-72
2022/07/13 15:44:58;;;;;;;0.70;0.50;;;31.60;36.10;;;;;;4956254;29;20541;-72
2022/07/13 15:47:25;;;;;;;0.70;0.60;;;31.80;36.10;;;;;;4955952;29;20875;-73
2022/07/13 15:49:52;;;;;;;0.60;0.50;;;31.90;37.40;;;;;;4956083;29;20947;-72
2022/07/13 15:52:20;;;;;;;0.60;0.50;;;31.90;37.40;;;;;;4955921;29;20514;-72
2022/07/13 15:54:46;;;;;;;0.60;0.50;;;31.80;36.30;;;;;;4955973;29;20506;-72
2022/07/13 15:57:13;;;;;;;0.70;0.60;;;31.60;36.00;;;;;;4956032;29;20510;-73
2022/07/13 15:59:40;;;;;;;0.60;0.50;;;31.80;37.80;;;;;;4956010;29;20802;-73
2022/07/13 16:02:07;;;;;;;0.60;0.50;;;31.80;38.10;;;;;;4955418;29;20479;-73
2022/07/13 16:04:33;;;;;;;1.07;0.60;;;31.70;38.40;;;;;;4955851;29;20568;-75
2022/07/13 16:07:00;;;;;;;0.97;0.57;;;31.50;38.40;;;;;;4955543;29;21078;-72